ED1ZAS
43.27.52N 005.40.17W
IN73DL aprs.fi
zuletzt gehoert:
2022-07-05T15:02:25Z
zuerst gehoert:
2020-02-10T15:05:12Z

APRS Siero [IN73DK], 2 Stunde(n), ED1ZAS [17:23:57, 0s].
ED1ZAS 43.27.52N 005.40.17WIN73DL 0.417km 345°NNW15:02:25ZRD985 438.2250/430.6250 CC1
ED1ZAE 43.27.99N 005.40.54WIN73DL 1.393km 334°NNW15:17:16ZWIDE3-3 ESAS3-3 IN73DL WWW.EA1URG.ORG(3ED1ZAE-3)
EA4ACU 43.29.56N 005.38.92WIN73EL 4.471km 21°NNE15:02:01ZMMDVM MMDVM HS Hat 432.7000/432.7000 CC1(3EA4ACU-1)
EB1GEM 43.30.00N 005.36.07WIN73EM 7.375km 47°NE15:23:53ZWX3in1Plus2.0 U=13.3V,T=??.?C/??.?F(3EB1GEM-3)
EA1DZR 43.31.48N 005.40.00WIN73EM 7.724km N15:02:10ZMMDVM DVMega 431.1000/431.1000 CC1(3EA1DZR-1)
MMDVM MMDVM HS Hat 432.1000/432.1000 CC2(2EA1DZR-2)
MMDVM DV ADER 434.3500/434.3500 CC1(2EA1DZR-4)
EA1IEJ 43.31.83N 005.40.22WIN73DM 8.373km 359°N15:02:03ZMMDVM DMO 222.3400/222.3400 CC1(3EA1IEJ-11)
EA1IPU 43.26.21N 005.46.62WIN73CK 8.999km 257°WSW15:00:53ZMMDVM MMDVM HS Hat 439.8000/439.8000 CC1(3EA1IPU-1)
EB1TK 43.32.22N 005.42.32WIN73DM 9.588km 342°NNW15:20:16ZWind 047°/016kn, Böen bis 019kn, Temp 18.89c, Regen 0.0mm, letzte 24h 1.0mm, seit 0h 1.0mm, Baro 1027.3h, Hum: 89%(3EB1TK-13)
LEEL 43.32.98N 005.41.71WIN73DN 10.725km 348°NNW15:00:05ZHelipuerto de El Musel: LEAS 051400Z 06009KT 340V100 9999 FEW030 20/17 Q1025 NOSIG=
LEMR 43.25.83N 005.49.60WIN73CK 13.083km 258°WSW15:00:05ZAerodromo de la Morgal (123.500MHz): LEAS 051400Z 06009KT 340V100 9999 FEW030 20/17 Q1025 NOSIG=
LEGM 43.26.15N 005.49.84WIN73CK 13.273km 261°W15:00:03ZHelipuerto de La Morgal (123.500MHz): LEAS 051400Z 06009KT 340V100 9999 FEW030 20/17 Q1025 NOSIG=
LEHU 43.22.63N 005.49.57WIN73CJ 15.427km 236°SW15:00:04ZHelipuerto del HUCA: LEAS 051400Z 06009KT 340V100 9999 FEW030 20/17 Q1025 NOSIG=
EA1JW 43.31.35N 005.28.83WIN73GM 16.900km 64°ENE15:01:52ZMMDVM MMDVM HS Hat 436.5000/436.5000 CC1(3EA1JW-3)
33D00 43.21.63N 005.51.13WIN73BI 18.200km 235°SW15:01:42Z33-D-00 Protección Civil REMER / Delegación del Gobierno en Asturias
EA1JAY 43.21.54N 005.51.34WIN73BI 18.538km 235°SW15:00:05ZEA1JAY(3EA1JAY-2)
434.525MHz Nodo TETRA DMO(2EA1JAY-4)
ED1ZAU 43.23.04N 005.52.75WIN73BJ 18.785km 245°WSW15:02:31ZRD625 438.5000/430.9000 CC1
EA1HJA 43.21.47N 005.52.09WIN73BI 19.433km 236°SW15:22:43Z IN73FL WX3IN1+ 2.0 - V=13.2V,TX TEMP=36.4C(3EA1HJA-2)
IN73FL WX3IN1+ 2.0 - V=14.0V,TX TEMP=45.8C(2EA1HJA)
EA1L 43.20.37N 005.51.13WIN73BI 19.633km 229°SW15:20:04Zea1l@ure.es V=13.4V
Wind 042°/006kn, Böen bis 012kn, Temp 18.89c, Regen 0.0mm, letzte 24h 0.0mm, seit 0h 0.0mm, Baro 1022.5h, Hum: 79%(2EA1L-13)
EA1HWX 43.19.28N 005.50.98WIN73BH 20.882km 225°SW15:02:11ZDMO - UHF 439.7250/431.0000 CC11(3EA1HWX-2)
MMDVM DMO 222.3400/222.3400 CC1(2EA1HWX-10)
EA1AHA 43.32.72N 005.54.38WIN73BN 21.658km 298°WNW15:02:28ZMMDVM MMDVM HS 433.5000/433.5000 CC1
Wind 225°/009kn, Böen bis 011kn, Temp 20.56c, Regen 0.0mm, letzte 24h 2.0mm, seit 0h 2.0mm, Baro 1025.9h, Hum: 76%(2EA1AHA-13)
ED1ZAY 43.29.47N 005.56.54WIN73AL 22.479km 280°W15:02:28ZRD625 438.3000/430.7000 CC1
EA1BCU 43.32.88N 005.55.46WIN73AN 23.087km 297°WNW15:21:24ZAnt-QFH 144.800 MHz, Arduino-APRS/TLM(3EA1BCU-4)
EB1DGC 43.12.60N 005.45.59WIN73CF 28.250km 195°SSW15:01:01ZMMDVM MMDVM HS Hat 433.4500/433.4500 CC1
EA1HWA 43.12.00N 005.47.40WIN73CE 30.029km 199°SSW15:01:26ZMMDVM MMDVM HS Hat 433.4500/433.4500 CC1
EA1JBU 43.30.80N 005.16.20WIN73IM 32.765km 78°ENE15:15:02ZEA1JBU(3EA1JBU-2)
EA1JBE 43.30.90N 005.16.15WIN73IM 32.881km 78°ENE15:22:45ZMAIN QTH http://qrz.com/db/ea1jbe(3EA1JBE-1)
MAIN QTH http://qrz.com/db/ea1jbe(2EA1JBE-13)
EA1RCG 43.09.45N 005.49.78WIN73CD 35.565km 202°SSW15:00:47ZGRUPO RADIO GALENA (GRG) 430.4500/430.4500 CC1(3EA1RCG-3)
ED1ZAD 43.07.90N 005.38.52WIN73ED 36.014km 177°S15:17:56ZED1ZAD-3 APRS Digi/Igate(3ED1ZAD-3)
ED1ZBF 43.19.16N 005.06.74WIN73KH 47.378km 108°ESE15:02:26ZRD625 438.4750/430.8750 CC1
EC1KV 43.34.01N 006.16.01WIN63UN 49.825km 285°WNW15:21:36ZALBUERNE(3EC1KV-1)

aprs.pl 5.0.011w DL3EL © 2006-2021 [3615999]